If you wish to contribute or participate in the discussions about articles you are invited to join SKYbrary as a registered user

 Actions

Simón Bolívar International Airport

From SKYbrary Wiki

SKSM
Airport
ICAO: SKSM – IATA: SMR
Summary
Name Simón Bolívar International Airport
Region South America and Caribbean
Territory Colombia CO.gif
Location Santa Marta, Magdalena department
Serving Santa Marta
Elevation 6.706 m
22 ft6.706 m
Coordinates 11° 7' 1.79" N, 74° 13' 57.55" W
Runways
Designator Length Width Surface ROPS
1/19 1700 m5,577.428 ft
30 m98.425 ft
ASP yes/yes


METAR
Observation SKSM 102100Z 35010KT 9000 FEW020 SCT200 31/25 A2977 RMK HZ
Station Santa Marta / Simon Bolivar
Date/Time 10 April 2019 21:00:00
Wind direction 350°
Wind speed 10 kts
Lowest cloud amount few clouds
Temperature 31°C
Dew point 25°C
Humidity 70%
QNH hPa
Weather condition n/a

The Simón Bolívar International Airport is known locally as Santa Marta Airport. The airport is located 14km7.559 nm
14,000 m
45,931.759 ft
south of Santa Marta, the capital of the Magdalena Department, 18km9.719 nm
18,000 m
59,055.118 ft
north of the municipality of Ciénaga in Colombia.

Climatology

Tropical savanna climate (Köppen climate classification Aw)

Maps

Terrain

Loading map...

Airport Layout

Loading map...


Accidents & Serious Incidents at or in vicinity of SKSM

None on SKYbrary